createdAt,value
2023-01-29T00:01:05.531Z,73.83
2023-01-29T00:03:33.269Z,73.79
2023-01-29T00:06:00.847Z,74.61
2023-01-29T00:08:27.925Z,75.51
2023-01-29T00:11:00.970Z,75.60
2023-01-29T00:13:28.711Z,75.63
2023-01-29T00:15:57.117Z,75.16
2023-01-29T00:18:25.419Z,75.34
2023-01-29T00:20:52.637Z,75.41
2023-01-29T00:23:19.894Z,75.47
2023-01-29T00:25:47.344Z,75.58
2023-01-29T00:28:15.105Z,76.46
2023-01-29T00:30:42.127Z,75.71
2023-01-29T00:33:09.191Z,75.30
2023-01-29T00:35:39.757Z,75.24
2023-01-29T00:38:06.847Z,75.24
2023-01-29T00:40:36.791Z,75.58
2023-01-29T00:43:04.107Z,75.32
2023-01-29T00:45:32.324Z,75.38
2023-01-29T00:47:59.515Z,75.01
2023-01-29T00:50:26.513Z,75.13
2023-01-29T00:52:53.561Z,75.83
2023-01-29T00:55:20.827Z,76.41
2023-01-29T00:57:48.412Z,75.39
2023-01-29T01:00:18.714Z,75.48
2023-01-29T01:02:46.430Z,75.64
2023-01-29T01:05:16.564Z,76.01
2023-01-29T01:07:52.264Z,76.35
2023-01-29T01:10:27.141Z,75.23
2023-01-29T01:12:55.391Z,75.31
2023-01-29T01:15:28.134Z,75.31
2023-01-29T01:17:57.319Z,75.68
2023-01-29T01:20:26.201Z,75.78
2023-01-29T01:22:54.204Z,77.05
2023-01-29T01:25:23.038Z,76.02
2023-01-29T01:27:55.390Z,75.47
2023-01-29T01:30:23.804Z,75.38
2023-01-29T01:32:51.110Z,76.51
2023-01-29T01:35:18.512Z,76.54
2023-01-29T01:37:45.609Z,76.49
2023-01-29T01:40:19.087Z,76.85
2023-01-29T01:43:06.041Z,77.28
2023-01-29T01:45:36.022Z,77.20
2023-01-29T01:48:18.392Z,76.86
2023-01-29T01:50:46.604Z,77.26
2023-01-29T01:53:19.707Z,78.12
2023-01-29T01:55:55.669Z,77.85
2023-01-29T01:58:27.993Z,76.67
2023-01-29T02:00:55.609Z,76.95
2023-01-29T02:03:24.351Z,77.38
2023-01-29T02:05:55.476Z,77.82
2023-01-29T02:09:16.817Z,78.13
2023-01-29T02:11:43.905Z,77.45
2023-01-29T02:14:12.250Z,77.94
2023-01-29T02:16:39.528Z,78.58
2023-01-29T02:19:16.346Z,78.45
2023-01-29T02:22:08.136Z,78.31
2023-01-29T02:25:04.538Z,78.21
2023-01-29T02:27:49.447Z,78.62
2023-01-29T02:31:05.425Z,78.58
2023-01-29T02:33:40.507Z,78.80
2023-01-29T02:36:07.487Z,79.53
2023-01-29T02:38:38.714Z,79.94
2023-01-29T02:41:21.556Z,79.66
2023-01-29T02:44:10.616Z,79.67
2023-01-29T02:46:56.466Z,79.74
2023-01-29T02:49:27.458Z,80.19
2023-01-29T02:52:04.814Z,79.59
2023-01-29T02:54:41.882Z,80.07
2023-01-29T02:57:21.305Z,78.71
2023-01-29T02:59:55.389Z,78.96
2023-01-29T03:02:33.411Z,79.74
2023-01-29T03:05:06.814Z,79.48
2023-01-29T03:07:40.487Z,80.49
2023-01-29T03:10:23.081Z,80.76
2023-01-29T03:12:56.385Z,80.59
2023-01-29T03:15:31.840Z,80.44
2023-01-29T03:18:23.304Z,79.68
2023-01-29T03:20:55.973Z,79.25
2023-01-29T03:23:28.328Z,80.77
2023-01-29T03:25:59.324Z,81.03
2023-01-29T03:28:30.152Z,81.00
2023-01-29T03:31:02.890Z,80.51
2023-01-29T03:33:51.509Z,79.97
2023-01-29T03:36:24.968Z,80.19
2023-01-29T03:38:52.093Z,80.11
2023-01-29T03:41:31.866Z,80.24
2023-01-29T03:43:59.492Z,79.72
2023-01-29T03:46:36.243Z,79.11
2023-01-29T03:49:25.695Z,80.17
2023-01-29T03:52:03.121Z,79.96
2023-01-29T03:54:46.798Z,78.40
2023-01-29T03:57:28.460Z,79.05
2023-01-29T04:00:02.022Z,78.36
2023-01-29T04:02:53.169Z,79.20
2023-01-29T04:05:25.335Z,79.32
2023-01-29T04:08:12.435Z,79.69
2023-01-29T04:10:44.178Z,79.75
2023-01-29T04:13:15.050Z,80.10
2023-01-29T04:15:53.036Z,80.41
2023-01-29T04:18:27.252Z,80.83
2023-01-29T04:21:20.320Z,81.09
2023-01-29T04:23:47.353Z,80.96
2023-01-29T04:26:24.579Z,80.75
2023-01-29T04:29:26.968Z,81.38
2023-01-29T04:32:15.677Z,81.24
2023-01-29T04:35:11.730Z,82.19
2023-01-29T04:37:54.890Z,82.21
2023-01-29T04:40:30.436Z,81.98
2023-01-29T04:43:06.653Z,82.15
2023-01-29T04:45:44.766Z,82.96
2023-01-29T04:48:17.857Z,82.60
2023-01-29T04:50:56.065Z,82.37
2023-01-29T04:53:32.723Z,82.74
2023-01-29T04:56:09.025Z,82.79
2023-01-29T04:58:42.247Z,83.62
2023-01-29T05:01:14.327Z,83.73
2023-01-29T05:03:45.885Z,84.29
2023-01-29T05:06:14.787Z,83.67
2023-01-29T05:08:41.955Z,84.62
2023-01-29T05:11:10.103Z,85.05
2023-01-29T05:13:40.513Z,85.43
2023-01-29T05:16:23.871Z,86.14
2023-01-29T05:18:51.417Z,86.33
2023-01-29T05:21:19.129Z,86.06
2023-01-29T05:23:46.219Z,86.49
2023-01-29T05:26:13.278Z,86.21
2023-01-29T05:28:40.267Z,85.97
2023-01-29T05:31:07.494Z,85.52
2023-01-29T05:33:34.536Z,85.42
2023-01-29T05:36:01.579Z,84.69
2023-01-29T05:38:28.640Z,85.16
2023-01-29T05:40:58.917Z,85.11
2023-01-29T05:43:25.955Z,85.57
2023-01-29T05:45:58.433Z,86.05
2023-01-29T05:48:27.167Z,86.32
2023-01-29T05:50:54.347Z,86.48
2023-01-29T05:53:21.367Z,86.77
2023-01-29T05:55:48.502Z,86.30
2023-01-29T05:58:15.519Z,86.65
2023-01-29T06:00:42.640Z,86.71
2023-01-29T06:03:09.699Z,86.29
2023-01-29T06:05:40.209Z,86.36
2023-01-29T06:08:07.734Z,85.68
2023-01-29T06:10:34.935Z,85.52
2023-01-29T06:13:02.177Z,85.63
2023-01-29T06:15:29.337Z,85.98
2023-01-29T06:17:57.154Z,85.90
2023-01-29T06:20:24.924Z,86.08
2023-01-29T06:22:51.907Z,85.69
2023-01-29T06:25:20.028Z,85.89
2023-01-29T06:27:50.657Z,85.92
2023-01-29T06:30:17.997Z,85.94
2023-01-29T06:32:45.469Z,85.45
2023-01-29T06:35:12.465Z,85.22
2023-01-29T06:37:39.466Z,85.15
2023-01-29T06:40:07.169Z,85.79
2023-01-29T06:42:37.244Z,85.69
2023-01-29T06:45:04.526Z,85.99
2023-01-29T06:47:31.623Z,85.69
2023-01-29T06:49:58.739Z,85.97
2023-01-29T06:52:25.748Z,86.67
2023-01-29T06:54:52.739Z,86.43
2023-01-29T06:57:19.726Z,87.20
2023-01-29T06:59:46.718Z,86.75
2023-01-29T07:02:13.814Z,86.39
2023-01-29T07:04:40.867Z,86.15
2023-01-29T07:07:08.623Z,85.87
2023-01-29T07:09:35.630Z,85.82
2023-01-29T07:12:03.758Z,86.51
2023-01-29T07:14:30.729Z,86.07
2023-01-29T07:16:57.712Z,85.99
2023-01-29T07:19:24.796Z,85.85
2023-01-29T07:21:51.804Z,85.71
2023-01-29T07:24:18.931Z,86.20
2023-01-29T07:26:46.062Z,85.89
2023-01-29T07:29:13.087Z,86.07
2023-01-29T07:31:40.198Z,86.17
2023-01-29T07:34:07.238Z,86.45
2023-01-29T07:36:34.253Z,86.67
2023-01-29T07:39:01.247Z,86.56
2023-01-29T07:41:28.279Z,86.34
2023-01-29T07:43:55.324Z,86.41
2023-01-29T07:46:22.343Z,86.71
2023-01-29T07:48:49.491Z,86.61
2023-01-29T07:51:16.512Z,86.33
2023-01-29T07:53:43.546Z,85.46
2023-01-29T07:56:10.616Z,84.64
2023-01-29T07:58:37.681Z,83.82
2023-01-29T08:01:08.195Z,83.62
2023-01-29T08:03:35.716Z,84.07
2023-01-29T08:06:04.183Z,84.28
2023-01-29T08:08:31.337Z,84.83
2023-01-29T08:11:01.785Z,84.75
2023-01-29T08:13:28.924Z,84.48
2023-01-29T08:15:59.846Z,84.29
2023-01-29T08:18:27.206Z,84.49
2023-01-29T08:20:59.846Z,84.35
2023-01-29T08:23:27.008Z,83.84
2023-01-29T08:25:54.201Z,83.42
2023-01-29T08:28:21.280Z,83.33
2023-01-29T08:30:48.343Z,83.04
2023-01-29T08:33:16.242Z,82.72
2023-01-29T08:35:48.990Z,83.06
2023-01-29T08:38:16.326Z,81.52
2023-01-29T08:40:43.965Z,80.94
2023-01-29T08:43:12.842Z,81.98
2023-01-29T08:45:42.543Z,81.46
2023-01-29T08:48:10.610Z,81.42
2023-01-29T08:50:38.270Z,81.98
2023-01-29T08:53:07.300Z,82.34
2023-01-29T08:55:39.415Z,81.64
2023-01-29T08:58:14.501Z,80.65
2023-01-29T09:00:41.593Z,79.13
2023-01-29T09:03:08.632Z,78.71
2023-01-29T09:05:37.132Z,78.58
2023-01-29T09:08:05.088Z,78.43
2023-01-29T09:10:32.491Z,78.62
2023-01-29T09:12:59.460Z,78.67
2023-01-29T09:15:26.926Z,78.88
2023-01-29T09:17:54.097Z,78.01
2023-01-29T09:20:21.248Z,79.38
2023-01-29T09:22:49.069Z,77.97
2023-01-29T09:25:16.430Z,77.65
2023-01-29T09:27:43.589Z,76.09
2023-01-29T09:30:11.307Z,75.76
2023-01-29T09:32:52.758Z,76.58
2023-01-29T09:35:21.827Z,77.12
2023-01-29T09:37:49.654Z,77.37
2023-01-29T09:40:30.629Z,77.29
2023-01-29T09:43:04.156Z,75.68
2023-01-29T09:45:31.444Z,74.72
2023-01-29T09:48:04.260Z,75.13
2023-01-29T09:50:33.501Z,74.45
2023-01-29T09:53:27.751Z,74.35
2023-01-29T09:56:02.189Z,74.08
2023-01-29T09:58:34.698Z,73.99
2023-01-29T10:01:15.341Z,75.01
2023-01-29T10:04:01.179Z,74.65
2023-01-29T10:06:49.654Z,73.43
2023-01-29T10:09:28.250Z,73.27
2023-01-29T10:12:38.463Z,73.31
2023-01-29T10:15:28.225Z,73.64
2023-01-29T10:18:33.959Z,72.57
2023-01-29T10:21:12.337Z,73.53
2023-01-29T10:24:08.689Z,73.62
2023-01-29T10:26:36.610Z,73.90
2023-01-29T10:29:07.003Z,72.09
2023-01-29T10:31:39.457Z,73.17
2023-01-29T10:34:21.074Z,72.67
2023-01-29T10:36:49.653Z,71.89
2023-01-29T10:39:18.201Z,71.32
2023-01-29T10:42:00.382Z,71.93
2023-01-29T10:44:38.647Z,72.25
2023-01-29T10:47:24.323Z,70.95
2023-01-29T10:50:18.696Z,72.30
2023-01-29T10:52:51.516Z,71.29
2023-01-29T10:55:40.016Z,72.53
2023-01-29T10:58:31.573Z,71.18
2023-01-29T11:00:58.934Z,72.20
2023-01-29T11:03:31.919Z,72.07
2023-01-29T11:06:04.823Z,71.04
2023-01-29T11:08:38.318Z,70.86
2023-01-29T11:11:12.189Z,70.92
2023-01-29T11:13:50.541Z,70.74
2023-01-29T11:16:17.662Z,70.46
2023-01-29T11:18:59.183Z,70.68
2023-01-29T11:21:28.193Z,69.77
2023-01-29T11:24:14.348Z,70.19
2023-01-29T11:26:42.641Z,70.42
2023-01-29T11:29:34.830Z,70.51
2023-01-29T11:32:04.552Z,69.54
2023-01-29T11:34:31.508Z,69.13
2023-01-29T11:37:14.787Z,68.98
2023-01-29T11:39:45.854Z,69.23
2023-01-29T11:42:23.198Z,68.19
2023-01-29T11:44:50.284Z,68.22
2023-01-29T11:47:20.847Z,67.19
2023-01-29T11:49:51.306Z,66.49
2023-01-29T11:52:24.036Z,67.14
2023-01-29T11:54:54.171Z,66.78
2023-01-29T11:57:35.571Z,67.26
2023-01-29T12:00:47.905Z,67.24
2023-01-29T12:03:25.216Z,67.47
2023-01-29T12:06:02.831Z,67.57
2023-01-29T12:08:36.483Z,67.21
2023-01-29T12:11:14.525Z,67.73
2023-01-29T12:13:42.360Z,67.71
2023-01-29T12:16:32.544Z,67.67
2023-01-29T12:19:29.455Z,67.20
2023-01-29T12:22:05.625Z,67.40
2023-01-29T12:24:43.830Z,66.68
2023-01-29T12:27:47.908Z,65.59
2023-01-29T12:30:25.719Z,65.27
2023-01-29T12:33:08.504Z,65.99
2023-01-29T12:35:48.054Z,65.94
2023-01-29T12:38:20.449Z,66.16
2023-01-29T12:40:55.737Z,65.98
2023-01-29T12:43:35.710Z,67.46
2023-01-29T12:46:06.459Z,67.16
2023-01-29T12:48:36.722Z,66.89
2023-01-29T12:51:13.206Z,68.06
2023-01-29T12:54:09.575Z,68.56
2023-01-29T12:56:44.587Z,68.32
2023-01-29T12:59:29.136Z,68.52
2023-01-29T13:02:12.673Z,69.56
2023-01-29T13:04:53.320Z,69.73
2023-01-29T13:07:36.360Z,69.83
2023-01-29T13:10:17.143Z,70.31
2023-01-29T13:13:15.201Z,69.94
2023-01-29T13:15:44.097Z,70.85
2023-01-29T13:18:33.451Z,71.01
2023-01-29T13:21:01.111Z,70.78
2023-01-29T13:23:39.287Z,71.51
2023-01-29T13:26:06.473Z,71.58
2023-01-29T13:28:33.848Z,71.36
2023-01-29T13:31:17.652Z,71.09
2023-01-29T13:33:53.603Z,71.53
2023-01-29T13:36:27.172Z,71.59
2023-01-29T13:39:00.112Z,71.83
2023-01-29T13:41:55.694Z,71.77
2023-01-29T13:44:39.209Z,71.94
2023-01-29T13:47:09.724Z,71.88
2023-01-29T13:49:45.370Z,70.69
2023-01-29T13:52:24.462Z,70.39
2023-01-29T13:55:14.508Z,71.99
2023-01-29T13:57:44.529Z,71.67
2023-01-29T14:00:20.772Z,71.46
2023-01-29T14:03:00.020Z,72.29
2023-01-29T14:05:30.039Z,71.33
2023-01-29T14:07:58.002Z,72.42
2023-01-29T14:10:27.381Z,72.81
2023-01-29T14:13:17.480Z,74.57
2023-01-29T14:15:46.767Z,73.80
2023-01-29T14:18:25.959Z,72.51
2023-01-29T14:20:58.691Z,72.04
2023-01-29T14:23:35.825Z,72.16
2023-01-29T14:26:05.987Z,72.60
2023-01-29T14:28:34.881Z,73.17
2023-01-29T14:31:03.342Z,72.74
2023-01-29T14:33:41.069Z,72.95
2023-01-29T14:36:13.114Z,73.65
2023-01-29T14:38:46.313Z,73.46
2023-01-29T14:41:27.235Z,73.79
2023-01-29T14:44:43.242Z,73.83
2023-01-29T14:47:19.907Z,74.45
2023-01-29T14:50:03.418Z,74.14
2023-01-29T14:52:40.185Z,74.37
2023-01-29T14:55:18.321Z,74.03
2023-01-29T14:57:45.871Z,74.18
2023-01-29T15:00:27.732Z,74.43
2023-01-29T15:03:01.703Z,74.71
2023-01-29T15:05:36.996Z,74.90
2023-01-29T15:08:13.320Z,74.78
2023-01-29T15:10:45.729Z,75.49
2023-01-29T15:13:21.050Z,74.85
2023-01-29T15:15:56.877Z,75.20
2023-01-29T15:18:37.920Z,75.84
2023-01-29T15:21:11.558Z,75.54
2023-01-29T15:23:38.787Z,75.73
2023-01-29T15:26:08.292Z,76.54
2023-01-29T15:28:35.802Z,76.70
2023-01-29T15:31:11.923Z,76.75
2023-01-29T15:33:44.355Z,77.16
2023-01-29T15:36:20.736Z,77.21
2023-01-29T15:38:48.361Z,77.49
2023-01-29T15:41:20.826Z,77.45
2023-01-29T15:43:50.521Z,78.41
2023-01-29T15:46:28.217Z,78.37
2023-01-29T15:48:59.429Z,78.63
2023-01-29T15:51:28.141Z,78.66
2023-01-29T15:54:00.795Z,78.26
2023-01-29T15:56:38.284Z,78.67
2023-01-29T15:59:09.703Z,78.96
2023-01-29T16:01:37.009Z,79.45
2023-01-29T16:04:04.638Z,79.53
2023-01-29T16:06:40.377Z,79.75
2023-01-29T16:09:08.342Z,79.51
2023-01-29T16:11:36.073Z,80.25
2023-01-29T16:14:04.617Z,80.51
2023-01-29T16:16:32.378Z,81.24
2023-01-29T16:19:01.262Z,81.20
2023-01-29T16:21:28.492Z,81.74
2023-01-29T16:23:58.828Z,83.03
2023-01-29T16:26:31.695Z,82.49
2023-01-29T16:29:05.050Z,82.88
2023-01-29T16:31:32.626Z,83.49
2023-01-29T16:34:10.096Z,83.58
2023-01-29T16:36:37.346Z,84.72
2023-01-29T16:39:18.543Z,85.38
2023-01-29T16:41:45.657Z,85.56
2023-01-29T16:44:15.742Z,85.68
2023-01-29T16:46:47.583Z,86.60
2023-01-29T16:49:26.740Z,86.84
2023-01-29T16:51:53.973Z,86.69
2023-01-29T16:54:24.648Z,87.21
2023-01-29T16:56:58.857Z,86.92
2023-01-29T16:59:35.485Z,87.01
2023-01-29T17:02:04.167Z,87.27
2023-01-29T17:04:31.307Z,87.27
2023-01-29T17:07:02.286Z,87.22
2023-01-29T17:09:37.741Z,87.22
2023-01-29T17:12:07.924Z,88.18
2023-01-29T17:14:35.341Z,88.39
2023-01-29T17:17:05.710Z,88.42
2023-01-29T17:19:33.270Z,88.82
2023-01-29T17:22:00.327Z,88.93
2023-01-29T17:24:27.351Z,88.69
2023-01-29T17:26:54.423Z,89.41
2023-01-29T17:29:26.540Z,89.06
2023-01-29T17:31:53.676Z,89.59
2023-01-29T17:34:20.997Z,89.82
2023-01-29T17:36:48.148Z,89.98
2023-01-29T17:39:18.889Z,90.07
2023-01-29T17:41:50.578Z,89.63
2023-01-29T17:44:17.990Z,89.61
2023-01-29T17:46:44.995Z,90.21
2023-01-29T17:49:27.266Z,90.02
2023-01-29T17:51:55.379Z,89.98
2023-01-29T17:54:23.312Z,90.03
2023-01-29T17:56:51.254Z,90.07
2023-01-29T17:59:29.348Z,90.46
2023-01-29T18:01:56.905Z,90.12
2023-01-29T18:04:24.007Z,89.50
2023-01-29T18:06:51.890Z,89.59
2023-01-29T18:09:20.318Z,89.32
2023-01-29T18:11:48.735Z,89.18
2023-01-29T18:14:16.109Z,89.11
2023-01-29T18:16:45.002Z,89.25
2023-01-29T18:19:25.782Z,89.38
2023-01-29T18:21:53.194Z,89.24
2023-01-29T18:24:20.476Z,88.93
2023-01-29T18:26:48.789Z,89.05
2023-01-29T18:29:15.888Z,89.24
2023-01-29T18:31:43.091Z,88.59
2023-01-29T18:34:10.129Z,88.30
2023-01-29T18:36:37.154Z,88.87
2023-01-29T18:39:04.198Z,89.28
2023-01-29T18:41:31.255Z,89.09
2023-01-29T18:43:58.313Z,88.53
2023-01-29T18:46:25.426Z,88.65
2023-01-29T18:48:52.431Z,88.59
2023-01-29T18:51:19.440Z,88.32
2023-01-29T18:53:53.017Z,88.93
2023-01-29T18:56:20.224Z,88.69
2023-01-29T18:58:55.192Z,88.60
2023-01-29T19:01:23.526Z,88.51
2023-01-29T19:03:50.647Z,88.07
2023-01-29T19:06:17.724Z,88.68
2023-01-29T19:08:44.768Z,89.13
2023-01-29T19:11:11.922Z,88.57
2023-01-29T19:13:39.417Z,88.18
2023-01-29T19:16:08.881Z,88.13
2023-01-29T19:18:36.220Z,87.90
2023-01-29T19:21:08.461Z,87.84
2023-01-29T19:23:35.527Z,88.39
2023-01-29T19:26:02.612Z,88.67
2023-01-29T19:28:29.679Z,88.89
2023-01-29T19:30:58.049Z,88.84
2023-01-29T19:33:26.102Z,88.76
2023-01-29T19:35:55.971Z,88.28
2023-01-29T19:38:23.269Z,87.58
2023-01-29T19:40:51.418Z,87.92
2023-01-29T19:43:18.655Z,87.65
2023-01-29T19:45:50.167Z,87.64
2023-01-29T19:48:18.792Z,88.01
2023-01-29T19:50:51.703Z,88.92
2023-01-29T19:53:18.751Z,89.52
2023-01-29T19:55:45.907Z,89.63
2023-01-29T19:58:12.943Z,89.75
2023-01-29T20:00:39.970Z,89.84
2023-01-29T20:03:07.056Z,89.74
2023-01-29T20:05:35.739Z,89.55
2023-01-29T20:08:02.784Z,89.93
2023-01-29T20:10:29.868Z,90.00
2023-01-29T20:12:56.901Z,89.91
2023-01-29T20:15:24.116Z,90.28
2023-01-29T20:17:51.144Z,89.66
2023-01-29T20:20:18.515Z,89.78
2023-01-29T20:22:45.790Z,90.16
2023-01-29T20:25:12.851Z,89.99
2023-01-29T20:27:40.164Z,90.18
2023-01-29T20:30:08.188Z,90.03
2023-01-29T20:32:35.295Z,90.43
2023-01-29T20:35:02.713Z,90.86
2023-01-29T20:37:29.877Z,91.00
2023-01-29T20:39:57.061Z,91.35
2023-01-29T20:42:24.130Z,91.46
2023-01-29T20:44:51.209Z,91.51
2023-01-29T20:47:18.307Z,91.33
2023-01-29T20:49:45.358Z,91.84
2023-01-29T20:52:12.489Z,91.86
2023-01-29T20:54:39.563Z,92.01
2023-01-29T20:57:06.743Z,92.32
2023-01-29T20:59:34.896Z,92.10
2023-01-29T21:02:01.988Z,92.19
2023-01-29T21:04:29.048Z,92.05
2023-01-29T21:06:56.085Z,92.18
2023-01-29T21:09:23.279Z,92.69
2023-01-29T21:11:50.288Z,92.86
2023-01-29T21:14:17.307Z,92.50
2023-01-29T21:16:44.363Z,93.16
2023-01-29T21:19:13.399Z,93.42
2023-01-29T21:21:40.508Z,93.75
2023-01-29T21:24:07.651Z,93.30
2023-01-29T21:26:35.447Z,93.58
2023-01-29T21:29:02.534Z,93.71
2023-01-29T21:31:29.669Z,94.01
2023-01-29T21:33:56.781Z,94.24
2023-01-29T21:36:23.872Z,94.39
2023-01-29T21:38:50.908Z,94.41
2023-01-29T21:41:18.012Z,94.13
2023-01-29T21:43:45.098Z,94.57
2023-01-29T21:46:12.380Z,94.34
2023-01-29T21:48:40.505Z,94.29
2023-01-29T21:51:08.425Z,94.78
2023-01-29T21:53:35.481Z,94.30
2023-01-29T21:56:05.000Z,94.42
2023-01-29T21:58:32.339Z,94.32
2023-01-29T22:01:18.554Z,94.37
2023-01-29T22:03:47.535Z,94.73
2023-01-29T22:06:15.453Z,94.81
2023-01-29T22:08:42.638Z,94.60
2023-01-29T22:11:10.266Z,94.61
2023-01-29T22:13:37.403Z,94.64
2023-01-29T22:16:04.733Z,94.67
2023-01-29T22:18:31.940Z,94.88
2023-01-29T22:20:58.950Z,95.73
2023-01-29T22:23:25.935Z,95.72
2023-01-29T22:25:52.946Z,95.38
2023-01-29T22:28:20.086Z,95.43
2023-01-29T22:30:47.183Z,95.15
2023-01-29T22:33:14.206Z,94.64
2023-01-29T22:35:41.165Z,94.21
2023-01-29T22:38:08.193Z,94.40
2023-01-29T22:40:35.204Z,94.22
2023-01-29T22:43:02.217Z,94.22
2023-01-29T22:45:29.183Z,94.25
2023-01-29T22:47:56.452Z,93.74
2023-01-29T22:50:23.480Z,93.10
2023-01-29T22:52:50.510Z,93.03
2023-01-29T22:55:17.623Z,92.77
2023-01-29T22:57:48.501Z,92.35
2023-01-29T23:00:16.417Z,92.13
2023-01-29T23:02:43.653Z,91.56
2023-01-29T23:05:10.665Z,91.96
2023-01-29T23:07:37.676Z,91.50
2023-01-29T23:10:06.519Z,91.18
2023-01-29T23:12:34.328Z,91.32
2023-01-29T23:15:01.356Z,90.79
2023-01-29T23:17:28.379Z,90.50
2023-01-29T23:19:55.435Z,90.78
2023-01-29T23:22:22.544Z,90.61
2023-01-29T23:24:49.704Z,90.24
2023-01-29T23:27:16.855Z,89.77
2023-01-29T23:29:48.103Z,90.58
2023-01-29T23:32:18.154Z,90.30
2023-01-29T23:34:45.391Z,90.98
2023-01-29T23:37:12.742Z,90.61
2023-01-29T23:39:39.807Z,90.60
2023-01-29T23:42:06.797Z,91.26
2023-01-29T23:44:33.855Z,91.14
2023-01-29T23:47:01.131Z,90.79
2023-01-29T23:49:28.163Z,91.27
2023-01-29T23:51:55.250Z,91.56
2023-01-29T23:54:22.284Z,91.93
2023-01-29T23:56:49.683Z,92.37
2023-01-29T23:59:17.158Z,92.07
